Kronborg, Nebraska
Current Conditions -  °F | °C
As of 6:15 PM on Sunday 25 Jan 2015 (Local Time) from KAUH Reporting Station
Broken Clouds Broken Clouds  
Wind Chill: 28°   Ceiling: 3800
Heat Index: 34°   Visibility: 10mi
Dew Point: 27°   Wind: 7mph
Humidity: 77%   Direction: 300°WNW
Pressure: 30.08"   Gusts: NA
Location:  41.0075°N, 98.0042°W
Report Text: KAUH 260015Z AUTO 30006KT 10SM BKN038 01/M03 A3008 RMK AO2 T00091027
Loading
Personal Weather Stations






























Interactive Weather Map New forecast layout! Learn more

10-Day Weather Forecast

Advertisements
Track Severe Weather on mobile